Time;durP1;ratioP1;P1;durP2;ratioP2;P2;SDS_P1;SDS_P2;PMS_P1;PMS_P2;Temp;Humidity;BMP_temperature;BMP_pressure;BME280_temperature;BME280_humidity;BME280_pressure;Samples;Min_cycle;Max_cycle;Signal;HPM_P1;HPM_P2
2022/09/02 00:01:58;;;;;;;14.60;11.05;;;;;;;21.94;63.50;94333.06;4212715;28;20615;-69
2022/09/02 00:04:02;;;;;;;14.13;11.55;;;;;;;21.83;64.08;94341.88;4209772;28;20101;-66
2022/09/02 00:06:04;;;;;;;14.30;11.35;;;;;;;21.86;64.23;94342.22;4212751;28;20567;-65
2022/09/02 00:08:06;;;;;;;15.90;11.10;;;;;;;21.89;64.15;94347.06;4208017;28;20045;-65
2022/09/02 00:10:08;;;;;;;13.13;10.95;;;;;;;21.94;63.88;94349.06;4196645;28;20052;-64
2022/09/02 00:12:11;;;;;;;15.50;11.30;;;;;;;21.96;64.05;94346.13;4207395;28;20058;-60
2022/09/02 00:14:21;;;;;;;18.50;11.75;;;;;;;21.99;63.64;94346.47;4198264;28;20060;-59
2022/09/02 00:16:23;;;;;;;13.85;11.15;;;;;;;21.97;63.93;94343.22;4199939;28;20520;-60
2022/09/02 00:18:26;;;;;;;15.70;12.10;;;;;;;21.89;64.30;94348.94;4203685;28;20509;-58
2022/09/02 00:20:29;;;;;;;17.20;12.00;;;;;;;21.85;64.45;94347.78;4195063;28;20103;-59
2022/09/02 00:22:30;;;;;;;18.90;11.70;;;;;;;21.87;64.66;94351.03;4207484;28;20060;-59
2022/09/02 00:24:32;;;;;;;14.63;12.00;;;;;;;21.91;64.57;94356.72;4196368;28;20086;-59
2022/09/02 00:26:34;;;;;;;15.38;11.18;;;;;;;21.93;64.56;94358.09;4202245;28;20040;-65
2022/09/02 00:28:36;;;;;;;15.52;11.02;;;;;;;21.95;64.43;94363.19;4212696;28;20573;-67
2022/09/02 00:30:38;;;;;;;13.63;11.23;;;;;;;21.97;64.26;94366.44;4200336;28;20045;-68
2022/09/02 00:32:39;;;;;;;16.13;12.38;;;;;;;21.98;64.38;94368.84;4199326;28;20051;-68
2022/09/02 00:34:41;;;;;;;13.13;11.40;;;;;;;22.00;64.54;94364.06;4207156;28;20052;-67
2022/09/02 00:36:43;;;;;;;15.38;11.93;;;;;;;22.00;64.37;94361.41;4196692;28;20145;-64
2022/09/02 00:38:45;;;;;;;13.68;11.25;;;;;;;22.02;64.25;94364.66;4196444;28;20048;-66
2022/09/02 00:40:48;;;;;;;17.40;11.95;;;;;;;22.04;63.97;94365.22;4198703;28;20043;-66
2022/09/02 00:42:51;;;;;;;13.57;12.15;;;;;;;22.04;64.22;94361.75;4212645;28;20044;-67
2022/09/02 00:44:53;;;;;;;15.50;12.50;;;;;;;22.02;64.12;94366.50;4208032;28;20574;-66
2022/09/02 00:46:54;;;;;;;16.23;12.23;;;;;;;21.97;63.95;94367.22;4210475;28;20040;-67
2022/09/02 00:49:23;;;;;;;14.60;11.93;;;;;;;21.55;65.26;94369.31;4212502;28;20097;-67
2022/09/02 00:51:27;;;;;;;15.27;12.48;;;;;;;20.99;67.26;94371.56;4210280;28;20052;-66
2022/09/02 00:53:29;;;;;;;15.40;12.68;;;;;;;21.01;67.21;94370.28;4209359;28;20154;-66
2022/09/02 00:55:39;;;;;;;15.52;12.60;;;;;;;20.99;67.32;94376.88;4210021;28;20060;-65
2022/09/02 00:57:55;;;;;;;16.15;11.95;;;;;;;21.12;67.19;94370.50;4212390;28;20055;-64
2022/09/02 01:00:03;;;;;;;15.45;12.02;;;;;;;21.26;66.71;94379.88;4209830;28;20043;-65
2022/09/02 01:02:06;;;;;;;17.83;12.82;;;;;;;21.38;66.49;94370.03;4206744;28;20136;-65
2022/09/02 01:04:08;;;;;;;16.13;12.55;;;;;;;21.48;66.05;94372.13;4210942;28;20107;-60
2022/09/02 01:06:14;;;;;;;13.23;11.82;;;;;;;21.59;65.90;94370.47;4218419;28;20052;-59
2022/09/02 01:08:29;;;;;;;15.07;11.88;;;;;;;21.67;65.36;94376.25;4203910;28;20101;-59
2022/09/02 01:10:33;;;;;;;14.45;11.93;;;;;;;21.63;65.15;94388.44;4204270;28;20048;-59
2022/09/02 01:12:35;;;;;;;;;;;;;;;21.43;65.73;94388.00;4211137;28;20114;-57
2022/09/02 01:14:37;;;;;;;17.80;13.05;;;;;;;21.34;65.96;94390.19;4211613;28;19920;-60
2022/09/02 01:16:48;;;;;;;16.20;11.75;;;;;;;21.02;67.45;94382.56;4198187;28;20105;-59
2022/09/02 01:18:53;;;;;;;18.52;12.57;;;;;;;20.90;67.87;94386.25;4211856;28;20048;-59
2022/09/02 01:20:56;;;;;;;15.88;12.38;;;;;;;20.77;68.53;94381.97;4209793;28;20047;-59
2022/09/02 01:22:59;;;;;;;;;;;;;;;20.85;68.41;94378.97;4201958;28;20048;-60
2022/09/02 01:25:05;;;;;;;17.10;12.57;;;;;;;20.89;68.45;94379.28;4211818;28;19920;-59
2022/09/02 01:27:06;;;;;;;17.30;11.77;;;;;;;20.93;68.42;94377.78;4211296;28;20048;-59
2022/09/02 01:29:08;;;;;;;13.23;10.98;;;;;;;20.95;68.09;94386.38;4197757;28;20417;-63
2022/09/02 01:31:10;;;;;;;15.60;10.13;;;;;;;20.99;67.97;94384.88;4198864;28;20212;-60
2022/09/02 01:33:26;;;;;;;10.00;9.00;;;;;;;20.94;67.48;94387.41;4182934;28;20070;-59
2022/09/02 01:35:28;;;;;;;12.43;8.90;;;;;;;20.89;67.26;94388.13;4211904;28;20048;-59
2022/09/02 01:37:31;;;;;;;9.93;7.80;;;;;;;20.76;67.99;94372.38;4205415;28;20369;-60
2022/09/02 01:39:32;;;;;;;8.35;6.65;;;;;;;20.70;68.04;94365.31;4209623;28;20048;-61
2022/09/02 01:41:35;;;;;;;6.65;5.90;;;;;;;20.63;68.66;94357.44;4200739;28;20093;-60
2022/09/02 01:43:36;;;;;;;7.35;5.68;;;;;;;20.42;69.60;94351.56;4211170;28;20044;-60
2022/09/02 01:45:40;;;;;;;10.18;6.07;;;;;;;20.08;71.09;94344.31;4210826;28;20532;-60
2022/09/02 01:47:42;;;;;;;7.88;5.40;;;;;;;19.95;71.51;94337.34;4197988;28;20132;-59
2022/09/02 01:49:45;;;;;;;8.48;5.30;;;;;;;19.78;72.01;94332.63;4211448;28;20453;-59
2022/09/02 01:51:47;;;;;;;7.00;5.07;;;;;;;19.71;71.78;94328.47;4210899;28;20044;-60
2022/09/02 01:53:49;;;;;;;5.13;4.45;;;;;;;19.62;71.33;94320.75;4211052;28;20055;-60
2022/09/02 01:55:51;;;;;;;5.18;4.15;;;;;;;19.56;71.02;94315.53;4211092;28;20055;-59
2022/09/02 01:57:52;;;;;;;5.97;4.65;;;;;;;19.48;71.63;94302.56;4211366;28;20036;-59
2022/09/02 01:59:54;;;;;;;5.70;3.80;;;;;;;19.49;70.97;94299.69;4211050;28;20423;-58
2022/09/02 02:01:56;;;;;;;5.03;3.60;;;;;;;19.49;70.92;94299.69;4210719;28;20048;-57
2022/09/02 02:03:59;;;;;;;4.43;3.53;;;;;;;19.52;70.43;94283.28;4207352;28;20102;-60
2022/09/02 02:06:06;;;;;;;4.28;3.10;;;;;;;19.55;70.41;94300.63;4205557;28;20745;-60
2022/09/02 02:08:08;;;;;;;5.25;3.50;;;;;;;19.63;69.91;94295.00;4208704;28;20056;-59
2022/09/02 02:10:12;;;;;;;5.28;3.40;;;;;;;19.61;69.73;94294.41;4210498;28;20189;-59
2022/09/02 02:12:15;;;;;;;4.68;3.47;;;;;;;19.71;69.01;94293.91;4194729;28;20048;-61
2022/09/02 02:14:16;;;;;;;4.95;3.70;;;;;;;19.73;69.26;94299.81;4195211;28;20408;-58
2022/09/02 02:16:18;;;;;;;8.43;3.50;;;;;;;19.80;69.02;94288.03;4194733;28;20469;-60
2022/09/02 02:18:20;;;;;;;3.70;2.88;;;;;;;19.79;68.92;94293.59;4196837;28;20075;-58
2022/09/02 02:20:23;;;;;;;4.05;3.40;;;;;;;19.89;68.54;94293.84;4207122;28;20114;-59
2022/09/02 02:22:26;;;;;;;3.67;3.25;;;;;;;19.96;68.73;94299.91;4194886;28;20049;-58
2022/09/02 02:24:27;;;;;;;5.07;3.67;;;;;;;20.10;68.64;94305.81;4195757;28;20105;-58
2022/09/02 02:26:30;;;;;;;4.40;3.63;;;;;;;20.22;68.46;94308.50;4200679;28;20503;-60
2022/09/02 02:28:32;;;;;;;5.65;3.88;;;;;;;20.26;68.24;94309.66;4209922;28;20060;-58
2022/09/02 02:30:34;;;;;;;4.13;3.70;;;;;;;20.23;68.65;94305.59;4210316;28;20052;-59
2022/09/02 02:32:36;;;;;;;4.85;4.00;;;;;;;20.25;68.62;94316.03;4208661;28;20060;-60
2022/09/02 02:34:38;;;;;;;5.60;4.00;;;;;;;20.29;68.72;94311.06;4211264;28;20048;-59
2022/09/02 02:36:40;;;;;;;5.03;4.05;;;;;;;20.34;68.85;94317.31;4210862;28;20129;-58
2022/09/02 02:38:44;;;;;;;5.25;4.60;;;;;;;20.35;68.50;94320.78;4210282;28;20059;-60
2022/09/02 02:40:46;;;;;;;6.57;5.32;;;;;;;20.35;68.75;94329.59;4195415;28;20555;-59
2022/09/02 02:42:52;;;;;;;6.88;5.90;;;;;;;20.42;69.06;94318.84;4194000;28;20459;-61
2022/09/02 02:44:53;;;;;;;7.25;5.63;;;;;;;20.50;68.93;94321.16;4193790;28;20726;-59
2022/09/02 02:46:55;;;;;;;6.78;6.07;;;;;;;20.52;68.89;94324.41;4194200;28;20102;-60
2022/09/02 02:49:02;;;;;;;7.45;5.47;;;;;;;20.60;68.80;94317.94;4210113;28;20047;-61
2022/09/02 02:51:04;;;;;;;8.73;5.97;;;;;;;20.66;68.80;94322.34;4211203;28;20074;-60
2022/09/02 02:53:06;;;;;;;6.20;5.28;;;;;;;20.73;68.62;94327.56;4208586;28;20052;-59
2022/09/02 02:55:10;;;;;;;5.93;5.15;;;;;;;20.77;68.54;94326.06;4205309;28;20094;-60
2022/09/02 02:57:12;;;;;;;11.45;5.38;;;;;;;20.77;68.64;94326.06;4194329;28;20049;-59
2022/09/02 02:59:14;;;;;;;6.47;5.50;;;;;;;20.82;68.50;94334.16;4194616;28;20056;-60
2022/09/02 03:01:16;;;;;;;6.45;4.85;;;;;;;20.85;68.35;94331.03;4203503;28;20044;-59
2022/09/02 03:03:18;;;;;;;8.25;5.63;;;;;;;20.85;68.42;94333.72;4196496;28;20699;-59
2022/09/02 03:05:20;;;;;;;8.35;5.72;;;;;;;20.84;68.42;94327.59;4209636;28;20103;-58
2022/09/02 03:07:22;;;;;;;8.20;5.55;;;;;;;20.86;68.40;94330.81;4210168;28;20040;-59
2022/09/02 03:09:24;;;;;;;6.57;4.50;;;;;;;20.85;68.42;94334.50;4213397;28;20052;-60
2022/09/02 03:11:27;;;;;;;7.78;5.72;;;;;;;20.90;68.28;94325.03;4211357;28;20052;-67
2022/09/02 03:13:30;;;;;;;7.20;4.68;;;;;;;20.86;68.66;94320.19;4201920;28;20524;-68
2022/09/02 03:15:32;;;;;;;;;;;;;;;20.87;68.39;94334.28;4200471;28;20044;-65
2022/09/02 03:17:34;;;;;;;9.15;5.57;;;;;;;20.88;68.11;94327.91;4200114;28;19928;-66
2022/09/02 03:19:35;;;;;;;6.38;5.35;;;;;;;20.88;68.17;94329.75;4202109;28;20063;-67
2022/09/02 03:21:37;;;;;;;7.60;5.07;;;;;;;20.88;68.22;94321.78;4211444;28;20044;-65
2022/09/02 03:23:39;;;;;;;7.75;5.10;;;;;;;20.71;68.25;94324.31;4199344;28;20493;-67
2022/09/02 03:25:42;;;;;;;8.23;5.82;;;;;;;20.68;68.50;94327.47;4200028;28;20052;-67
2022/09/02 03:27:44;;;;;;;8.05;5.60;;;;;;;20.66;68.85;94325.81;4212764;28;20052;-68
2022/09/02 03:29:46;;;;;;;7.22;5.88;;;;;;;20.60;69.04;94331.25;4207566;28;20045;-68
2022/09/02 03:31:48;;;;;;;6.85;6.15;;;;;;;20.56;69.41;94327.41;4196397;28;20098;-67
2022/09/02 03:33:50;;;;;;;11.70;6.38;;;;;;;20.52;69.71;94328.91;4197226;28;20562;-69
2022/09/02 03:35:51;;;;;;;7.25;6.55;;;;;;;20.24;70.88;94331.19;4206969;28;20053;-67
2022/09/02 03:37:54;;;;;;;8.43;6.30;;;;;;;20.24;71.34;94339.16;4212436;28;20101;-67
2022/09/02 03:39:57;;;;;;;9.30;6.72;;;;;;;20.27;71.15;94334.41;4209379;28;20429;-65
2022/09/02 03:41:59;;;;;;;8.10;7.30;;;;;;;20.24;71.29;94339.16;4210044;28;20056;-68
2022/09/02 03:44:01;;;;;;;9.63;8.45;;;;;;;20.28;71.09;94338.69;4213489;28;20054;-65
2022/09/02 03:46:04;;;;;;;8.75;7.07;;;;;;;20.37;70.86;94342.63;4212816;28;20051;-66
2022/09/02 03:48:06;;;;;;;10.20;7.78;;;;;;;20.31;70.88;94344.38;4212855;28;20142;-68
2022/09/02 03:50:08;;;;;;;7.32;6.63;;;;;;;20.30;70.93;94345.41;4198323;28;20106;-67
2022/09/02 03:52:10;;;;;;;8.95;7.45;;;;;;;20.25;70.97;94353.25;4209859;28;20044;-67
2022/09/02 03:54:12;;;;;;;8.95;8.05;;;;;;;20.18;71.40;94355.22;4211619;28;20047;-66
2022/09/02 03:56:15;;;;;;;9.43;8.05;;;;;;;20.07;71.76;94364.78;4204858;28;20558;-63
2022/09/02 03:58:18;;;;;;;9.43;8.05;;;;;;;20.11;71.96;94365.94;4196865;28;20080;-68
2022/09/02 04:00:23;;;;;;;;;;;;;;;20.19;71.71;94373.59;4212328;28;20135;-66
2022/09/02 04:02:24;;;;;;;10.80;8.05;;;;;;;20.28;71.57;94375.94;4206605;28;19924;-66
2022/09/02 04:04:26;;;;;;;9.52;7.95;;;;;;;20.33;71.23;94368.91;4206300;28;20458;-65
2022/09/02 04:06:28;;;;;;;10.88;8.57;;;;;;;20.39;70.92;94368.00;4208106;28;20525;-67
2022/09/02 04:08:33;;;;;;;9.90;8.20;;;;;;;20.34;70.67;94375.03;4206571;28;20075;-67
2022/09/02 04:10:36;;;;;;;11.35;8.18;;;;;;;20.36;71.25;94379.06;4200737;28;20112;-65
2022/09/02 04:12:39;;;;;;;8.93;8.02;;;;;;;20.32;70.83;94387.75;4213183;28;20040;-65
2022/09/02 04:14:41;;;;;;;9.93;8.93;;;;;;;20.28;71.13;94383.91;4212573;28;20142;-66
2022/09/02 04:16:43;;;;;;;10.93;8.30;;;;;;;20.28;71.42;94387.38;4211895;28;20059;-68
2022/09/02 04:18:45;;;;;;;11.57;8.07;;;;;;;20.27;71.14;94391.09;4211634;28;20072;-68
2022/09/02 04:20:47;;;;;;;9.63;8.63;;;;;;;20.33;70.98;94392.84;4211565;28;20051;-66
2022/09/02 04:22:48;;;;;;;9.52;7.68;;;;;;;20.38;70.67;94397.47;4206918;28;20044;-68
2022/09/02 04:24:50;;;;;;;10.30;8.05;;;;;;;20.43;70.54;94394.94;4211290;28;20055;-59
2022/09/02 04:26:52;;;;;;;9.98;8.27;;;;;;;20.52;70.43;94387.44;4212805;28;20207;-62
2022/09/02 04:28:54;;;;;;;10.18;8.13;;;;;;;20.61;70.36;94391.44;4212212;28;20048;-60
2022/09/02 04:30:55;;;;;;;10.70;7.72;;;;;;;20.63;70.16;94389.38;4209876;28;20456;-59
2022/09/02 04:32:57;;;;;;;8.88;7.97;;;;;;;20.72;69.78;94392.50;4210835;28;20048;-58
2022/09/02 04:34:59;;;;;;;9.00;8.02;;;;;;;20.76;69.64;94397.13;4212688;28;20056;-59
2022/09/02 04:37:00;;;;;;;10.88;8.02;;;;;;;20.79;69.21;94404.66;4209488;28;20488;-60
2022/09/02 04:39:02;;;;;;;9.57;8.18;;;;;;;20.78;69.23;94408.38;4209189;28;20056;-60
2022/09/02 04:41:09;;;;;;;9.93;8.50;;;;;;;20.80;69.38;94410.78;4211199;28;20044;-61
2022/09/02 04:43:12;;;;;;;13.43;8.48;;;;;;;20.82;69.29;94408.69;4211718;28;20055;-59
2022/09/02 04:45:13;;;;;;;9.82;8.70;;;;;;;20.82;69.01;94404.19;4210588;28;20051;-58
2022/09/02 04:47:16;;;;;;;14.30;8.50;;;;;;;20.84;68.88;94407.44;4210591;28;20049;-59
2022/09/02 04:49:18;;;;;;;10.98;8.05;;;;;;;20.90;68.78;94404.91;4211303;28;20397;-61
2022/09/02 04:51:22;;;;;;;8.95;7.95;;;;;;;20.89;68.75;94413.91;4211114;28;20060;-60
2022/09/02 04:53:24;;;;;;;8.43;7.50;;;;;;;20.91;68.85;94417.97;4209717;28;20520;-59
2022/09/02 04:55:25;;;;;;;12.50;9.32;;;;;;;20.88;68.93;94407.78;4197215;28;20570;-60
2022/09/02 04:57:27;;;;;;;12.15;9.63;;;;;;;20.85;68.96;94413.56;4195680;28;20082;-60
2022/09/02 04:59:29;;;;;;;11.10;8.95;;;;;;;20.81;69.22;94409.75;4195830;28;20052;-60
2022/09/02 05:01:33;;;;;;;11.35;9.75;;;;;;;20.82;69.06;94416.69;4195099;28;20056;-60
2022/09/02 05:03:35;;;;;;;10.73;9.60;;;;;;;20.85;68.96;94419.69;4194615;28;20468;-61
2022/09/02 05:05:38;;;;;;;11.68;9.45;;;;;;;20.91;68.78;94419.81;4203879;28;20400;-60
2022/09/02 05:07:39;;;;;;;15.65;9.50;;;;;;;20.91;68.74;94417.97;4213086;28;20043;-59
2022/09/02 05:09:41;;;;;;;10.82;9.07;;;;;;;20.95;68.49;94413.81;4207826;28;20098;-61
2022/09/02 05:11:43;;;;;;;13.02;9.85;;;;;;;20.98;68.46;94415.22;4212050;28;20093;-62
2022/09/02 05:13:49;;;;;;;11.95;10.68;;;;;;;20.98;68.29;94413.34;4212015;28;20059;-60
2022/09/02 05:15:51;;;;;;;11.70;9.57;;;;;;;20.99;68.23;94425.63;4209903;28;20077;-60
2022/09/02 05:17:53;;;;;;;11.77;9.57;;;;;;;20.99;68.41;94424.81;4209341;28;20136;-61
2022/09/02 05:19:55;;;;;;;11.10;9.88;;;;;;;21.00;68.23;94424.59;4209661;28;20146;-60
2022/09/02 05:21:58;;;;;;;11.20;10.00;;;;;;;21.00;68.33;94429.09;4210419;28;20476;-59
2022/09/02 05:23:59;;;;;;;11.13;9.48;;;;;;;20.96;68.20;94423.41;4211281;28;20071;-60
2022/09/02 05:26:05;;;;;;;12.88;9.63;;;;;;;20.97;68.16;94426.88;4211829;28;20101;-61
2022/09/02 05:28:10;;;;;;;9.85;8.82;;;;;;;20.98;68.13;94425.88;4210980;28;20052;-60
2022/09/02 05:30:12;;;;;;;11.32;8.85;;;;;;;20.99;68.34;94420.31;4202061;28;20472;-60
2022/09/02 05:32:14;;;;;;;12.57;9.73;;;;;;;21.01;68.27;94425.38;4194130;28;20045;-61
2022/09/02 05:34:17;;;;;;;13.30;9.57;;;;;;;21.01;68.20;94420.06;4211381;28;20705;-60
2022/09/02 05:36:20;;;;;;;10.45;8.52;;;;;;;21.03;68.07;94424.13;4211733;28;20128;-59
2022/09/02 05:38:23;;;;;;;13.32;9.30;;;;;;;21.09;67.98;94422.38;4208656;28;20068;-61
2022/09/02 05:40:25;;;;;;;11.90;9.00;;;;;;;21.12;68.06;94424.56;4203937;28;20064;-63
2022/09/02 05:42:30;;;;;;;11.73;8.23;;;;;;;21.15;67.98;94423.34;4211394;28;20044;-68
2022/09/02 05:44:32;;;;;;;17.00;8.77;;;;;;;21.22;67.68;94422.16;4211468;28;20075;-70
2022/09/02 05:46:34;;;;;;;11.05;8.05;;;;;;;21.28;67.59;94417.75;4210939;28;20906;-67
2022/09/02 05:50:57;;;;;;;11.65;7.95;;;;;;;21.34;67.02;94416.84;4210460;28;20454;-67
2022/09/02 05:52:59;;;;;;;10.15;7.75;;;;;;;21.40;66.48;94421.25;4210719;28;20752;-68
2022/09/02 05:55:02;;;;;;;8.55;7.05;;;;;;;21.46;66.30;94414.19;4199898;28;20105;-66
2022/09/02 05:57:10;;;;;;;12.55;7.60;;;;;;;21.50;65.99;94418.00;4195023;28;20499;-67
2022/09/02 05:59:12;;;;;;;7.90;6.82;;;;;;;21.52;65.67;94413.25;4200792;28;20120;-70
2022/09/02 06:01:15;;;;;;;8.40;6.70;;;;;;;21.53;65.63;94412.22;4210592;28;20120;-65
2022/09/02 06:03:19;;;;;;;10.32;6.93;;;;;;;21.57;65.47;94415.22;4210816;28;20048;-68
2022/09/02 06:05:21;;;;;;;7.25;6.22;;;;;;;21.57;64.82;94408.03;4211004;28;20427;-69
2022/09/02 06:07:25;;;;;;;7.82;6.93;;;;;;;21.59;64.95;94415.78;4210120;28;20052;-69
2022/09/02 06:09:26;;;;;;;7.60;6.63;;;;;;;21.57;65.17;94416.00;4213587;28;20156;-67
2022/09/02 06:11:28;;;;;;;7.88;6.97;;;;;;;21.55;65.15;94415.44;4211359;28;20109;-67
2022/09/02 06:13:33;;;;;;;9.05;7.05;;;;;;;21.54;64.68;94415.69;4198602;28;20065;-68
2022/09/02 06:15:42;;;;;;;12.45;7.22;;;;;;;21.57;65.02;94417.88;4209854;28;20052;-67
2022/09/02 06:17:44;;;;;;;9.85;7.82;;;;;;;21.61;64.75;94421.69;4210212;28;20127;-67
2022/09/02 06:19:46;;;;;;;11.00;7.75;;;;;;;21.60;65.18;94415.56;4210671;28;20472;-68
2022/09/02 06:21:53;;;;;;;11.15;6.53;;;;;;;21.63;65.02;94415.09;4210719;28;20044;-68
2022/09/02 06:23:55;;;;;;;8.40;7.45;;;;;;;21.65;64.86;94421.00;4206680;28;20055;-66
2022/09/02 06:25:58;;;;;;;10.45;7.07;;;;;;;21.65;65.05;94423.66;4211101;28;20423;-68
2022/09/02 06:28:00;;;;;;;9.73;7.35;;;;;;;21.72;65.03;94425.38;4208286;28;20056;-67
2022/09/02 06:30:08;;;;;;;8.07;6.47;;;;;;;21.77;64.90;94428.16;4203152;28;20066;-60
2022/09/02 06:32:10;;;;;;;9.20;7.00;;;;;;;21.73;65.11;94435.81;4200579;28;20044;-59
2022/09/02 06:34:14;;;;;;;8.70;6.35;;;;;;;21.72;64.57;94428.06;4210442;28;20052;-61
2022/09/02 06:36:17;;;;;;;8.13;6.30;;;;;;;21.72;64.48;94425.38;4199615;28;20040;-60
2022/09/02 06:38:19;;;;;;;7.95;6.38;;;;;;;21.71;64.35;94432.59;4201687;28;20052;-59
2022/09/02 06:40:21;;;;;;;9.95;6.85;;;;;;;21.72;64.90;94434.19;4196951;28;20109;-60
2022/09/02 06:42:23;;;;;;;12.07;7.13;;;;;;;21.73;64.78;94432.34;4198713;28;20043;-59
2022/09/02 06:44:25;;;;;;;9.63;7.63;;;;;;;21.70;65.20;94425.63;4214612;28;20048;-60
2022/09/02 06:46:39;;;;;;;9.80;7.28;;;;;;;21.71;65.52;94434.44;4205501;28;20147;-60
2022/09/02 06:48:41;;;;;;;7.72;6.93;;;;;;;21.74;65.91;94439.28;4201350;28;20075;-60
2022/09/02 06:50:45;;;;;;;13.38;7.75;;;;;;;21.68;65.55;94443.69;4200118;28;20044;-62
2022/09/02 06:52:47;;;;;;;9.50;7.10;;;;;;;21.65;65.50;94444.19;4205268;28;20109;-60
2022/09/02 06:54:50;;;;;;;11.05;7.35;;;;;;;21.71;65.53;94445.09;4214388;28;20056;-60
2022/09/02 06:56:52;;;;;;;10.23;7.53;;;;;;;21.69;65.53;94442.66;4214094;28;20492;-58
2022/09/02 06:58:55;;;;;;;11.40;8.02;;;;;;;21.73;65.80;94440.34;4214501;28;20047;-61
2022/09/02 07:00:56;;;;;;;8.88;7.43;;;;;;;21.79;65.63;94444.72;4213827;28;20489;-59
2022/09/02 07:05:19;;;;;;;10.48;7.93;;;;;;;21.92;65.03;94449.81;4197553;28;20045;-60
2022/09/02 07:07:20;;;;;;;10.73;7.90;;;;;;;21.95;64.28;94446.66;4207872;28;20105;-64
2022/09/02 07:09:29;;;;;;;8.50;7.53;;;;;;;21.98;64.33;94448.84;4210576;28;20105;-61
2022/09/02 07:11:32;;;;;;;11.40;10.13;;;;;;;21.98;64.81;94464.84;4209552;28;20052;-61
2022/09/02 07:13:34;;;;;;;11.75;8.30;;;;;;;21.96;65.20;94458.97;4202996;28;20052;-61
2022/09/02 07:15:36;;;;;;;12.63;8.13;;;;;;;21.97;65.06;94455.25;4207956;28;20048;-60
2022/09/02 07:17:37;;;;;;;9.45;7.75;;;;;;;22.00;64.79;94459.28;4199295;28;20492;-60
2022/09/02 07:19:39;;;;;;;9.80;7.45;;;;;;;22.09;64.67;94457.88;4200552;28;20052;-60
2022/09/02 07:21:41;;;;;;;9.73;8.13;;;;;;;22.17;64.25;94462.03;4198981;28;20048;-65
2022/09/02 07:23:43;;;;;;;10.02;7.88;;;;;;;22.12;63.54;94461.94;4198260;28;20044;-60
2022/09/02 07:25:45;;;;;;;9.85;7.35;;;;;;;22.10;63.90;94459.50;4198613;28;20595;-61
2022/09/02 07:27:47;;;;;;;8.52;7.55;;;;;;;22.01;64.10;94461.72;4210684;28;20059;-60
2022/09/02 07:29:49;;;;;;;10.77;7.80;;;;;;;22.04;64.58;94455.91;4212151;28;20051;-62
2022/09/02 07:31:51;;;;;;;8.45;6.85;;;;;;;22.10;64.37;94459.50;4197127;28;20105;-61
2022/09/02 07:33:57;;;;;;;10.45;6.47;;;;;;;22.11;63.47;94460.31;4200748;28;20052;-60
2022/09/02 07:35:59;;;;;;;9.20;6.10;;;;;;;22.16;63.72;94461.22;4197401;28;20047;-61
2022/09/02 07:38:02;;;;;;;7.65;6.85;;;;;;;22.23;63.60;94461.91;4198177;28;20451;-63
2022/09/02 07:40:06;;;;;;;8.68;7.78;;;;;;;22.31;63.72;94458.09;4198828;28;20052;-62
2022/09/02 07:42:07;;;;;;;7.63;6.82;;;;;;;22.40;63.05;94451.31;4199269;28;20060;-62
2022/09/02 07:44:10;;;;;;;8.38;7.03;;;;;;;22.48;62.94;94458.13;4197110;28;20130;-62
2022/09/02 07:46:12;;;;;;;8.38;7.57;;;;;;;22.60;62.77;94455.41;4195438;28;20584;-61
2022/09/02 07:48:14;;;;;;;7.90;7.00;;;;;;;22.65;62.04;94450.97;4196865;28;20067;-61
2022/09/02 07:50:17;;;;;;;8.48;6.53;;;;;;;22.71;62.37;94459.84;4210345;28;20048;-59
2022/09/02 07:52:21;;;;;;;12.77;7.78;;;;;;;22.77;62.35;94458.91;4198749;28;20044;-63
2022/09/02 07:54:24;;;;;;;10.13;7.43;;;;;;;22.80;62.72;94458.44;4206436;28;20090;-59
2022/09/02 07:56:26;;;;;;;9.00;7.18;;;;;;;22.86;62.44;94457.44;4212122;28;20454;-58
2022/09/02 07:58:28;;;;;;;10.35;7.25;;;;;;;22.90;61.50;94455.91;4209979;28;20113;-62
2022/09/02 08:00:32;;;;;;;9.30;7.50;;;;;;;22.93;61.49;94462.66;4213107;28;20051;-66
2022/09/02 08:02:34;;;;;;;8.30;6.70;;;;;;;22.94;61.07;94463.47;4205183;28;20446;-69
2022/09/02 08:04:36;;;;;;;7.18;6.18;;;;;;;22.94;61.49;94474.16;4207832;28;20162;-69
2022/09/02 08:06:38;;;;;;;8.20;7.13;;;;;;;22.93;61.22;94469.84;4213353;28;20052;-69
2022/09/02 08:08:41;;;;;;;9.63;6.90;;;;;;;22.96;61.30;94480.88;4212611;28;20044;-67
2022/09/02 08:10:43;;;;;;;11.45;7.43;;;;;;;22.98;61.92;94475.28;4208329;28;20397;-60
2022/09/02 08:12:45;;;;;;;8.85;6.50;;;;;;;22.90;61.03;94479.16;4208537;28;20051;-61
2022/09/02 08:14:47;;;;;;;10.27;6.63;;;;;;;22.62;61.08;94486.13;4212608;28;20052;-61
2022/09/02 08:16:50;;;;;;;10.57;6.70;;;;;;;22.49;61.72;94481.91;4211524;28;20280;-59
2022/09/02 08:18:51;;;;;;;8.55;7.57;;;;;;;22.41;62.25;94484.13;4212260;28;20048;-59
2022/09/02 08:20:54;;;;;;;11.15;7.38;;;;;;;22.36;62.38;94486.72;4212966;28;20056;-63
2022/09/02 08:22:57;;;;;;;9.10;7.03;;;;;;;22.24;62.10;94481.41;4205922;28;20098;-61
2022/09/02 08:25:13;;;;;;;10.60;7.22;;;;;;;22.23;62.69;94483.28;4201290;28;20079;-60
2022/09/02 08:27:14;;;;;;;12.32;7.57;;;;;;;22.29;62.48;94482.31;4212763;28;20060;-60
2022/09/02 08:29:16;;;;;;;7.63;6.82;;;;;;;22.33;62.56;94485.34;4212521;28;20040;-58
2022/09/02 08:31:18;;;;;;;8.35;6.32;;;;;;;22.35;62.65;94490.41;4212204;28;20176;-60
2022/09/02 08:33:20;;;;;;;10.07;7.07;;;;;;;22.38;62.34;94484.63;4212956;28;20127;-62
2022/09/02 08:35:22;;;;;;;10.40;6.57;;;;;;;22.42;62.32;94485.78;4212957;28;20051;-61
2022/09/02 08:37:23;;;;;;;8.50;7.22;;;;;;;22.48;62.04;94480.28;4210103;28;20121;-61
2022/09/02 08:39:25;;;;;;;9.30;6.60;;;;;;;22.56;62.38;94487.09;4212476;28;20048;-59
2022/09/02 08:41:45;;;;;;;11.35;6.57;;;;;;;22.63;62.10;94477.09;4212404;28;20047;-63
2022/09/02 08:43:49;;;;;;;7.45;6.50;;;;;;;22.67;61.66;94470.22;4211160;28;20054;-60
2022/09/02 08:45:53;;;;;;;9.45;7.43;;;;;;;22.73;61.41;94476.44;4196210;28;20106;-62
2022/09/02 08:48:22;;;;;;;7.13;6.25;;;;;;;22.80;61.12;94479.81;4204776;28;20514;-67
2022/09/02 08:50:25;;;;;;;7.68;6.85;;;;;;;22.83;60.86;94478.50;4184036;28;20401;-69
2022/09/02 08:52:39;;;;;;;15.48;6.65;;;;;;;22.86;60.27;94470.00;4209935;28;20040;-61
2022/09/02 08:54:41;;;;;;;6.68;5.95;;;;;;;22.89;60.13;94472.19;4203718;28;20045;-58
2022/09/02 08:56:43;;;;;;;7.47;6.30;;;;;;;22.90;60.63;94466.59;4208021;28;20070;-63
2022/09/02 08:58:51;;;;;;;11.20;7.15;;;;;;;22.93;60.93;94461.81;4211947;28;20052;-61
2022/09/02 09:01:20;;;;;;;8.95;7.40;;;;;;;22.92;60.20;94460.22;4211624;28;20048;-62
2022/09/02 09:03:28;;;;;;;11.40;7.32;;;;;;;22.76;60.39;94462.63;4203946;28;20131;-60
2022/09/02 09:05:50;;;;;;;10.48;7.00;;;;;;;22.35;61.99;94464.56;4226904;28;20051;-62
2022/09/02 09:08:14;;;;;;;9.48;6.95;;;;;;;22.36;61.99;94460.84;4209695;28;20500;-59
2022/09/02 09:10:43;;;;;;;8.05;7.25;;;;;;;22.45;61.95;94469.28;4204675;28;20050;-62
2022/09/02 09:13:00;;;;;;;11.38;7.85;;;;;;;22.57;61.86;94459.34;4210011;28;20052;-62
2022/09/02 09:15:24;;;;;;;11.40;7.75;;;;;;;22.53;61.98;94462.75;4208780;28;20670;-62
2022/09/02 09:17:43;;;;;;;10.05;7.90;;;;;;;22.24;61.83;94452.88;4206085;28;20068;-61
2022/09/02 09:19:53;;;;;;;12.02;8.05;;;;;;;22.21;62.83;94450.66;4198808;28;20138;-61
2022/09/02 09:21:59;;;;;;;9.60;7.97;;;;;;;22.33;62.81;94456.00;4193919;28;20048;-61
2022/09/02 09:24:06;;;;;;;14.27;8.02;;;;;;;22.51;62.43;94456.84;4204125;28;20044;-62
2022/09/02 09:26:22;;;;;;;9.40;8.02;;;;;;;22.74;61.79;94451.38;4201140;28;20071;-58
2022/09/02 09:28:24;;;;;;;9.35;7.88;;;;;;;22.89;61.33;94442.81;4211827;28;20499;-60
2022/09/02 09:30:27;;;;;;;8.40;7.45;;;;;;;22.90;60.27;94450.56;4200288;28;20060;-62
2022/09/02 09:32:33;;;;;;;;;;;;;;;22.91;60.52;94446.06;4195415;28;20301;-59
2022/09/02 09:35:01;;;;;;;11.23;8.00;;;;;;;22.98;59.69;94440.56;4199675;28;19920;-61
2022/09/02 09:37:03;;;;;;;9.35;8.35;;;;;;;22.89;60.35;94448.97;4198893;28;20151;-61
2022/09/02 09:39:24;;;;;;;12.13;8.68;;;;;;;23.03;60.15;94440.66;4205553;28;20078;-60
2022/09/02 09:41:27;;;;;;;12.07;9.25;;;;;;;23.06;59.84;94434.84;4203308;28;20051;-59
2022/09/02 09:43:30;;;;;;;10.43;7.65;;;;;;;23.20;59.92;94441.47;4211936;28;20044;-67
2022/09/02 09:45:34;;;;;;;12.27;9.40;;;;;;;23.11;58.91;94448.28;4209110;28;20056;-69